Time;durP1;ratioP1;P1;durP2;ratioP2;P2;SDS_P1;SDS_P2;PMS_P1;PMS_P2;Temp;Humidity;BMP_temperature;BMP_pressure;BME280_temperature;BME280_humidity;BME280_pressure;Samples;Min_cycle;Max_cycle;Signal;HPM_P1;HPM_P2
2021/03/02 00:00:17;;;;;;;7.75;3.87;;;;;;;2.06;79.33;101713.41;1797758;76;21114;-46
2021/03/02 00:02:59;;;;;;;8.18;4.35;;;;;;;2.10;79.06;101699.81;1810145;76;21105;31
2021/03/02 00:08:29;;;;;;;7.80;4.37;;;;;;;2.11;78.55;101683.23;1661289;84;21642;-47
2021/03/02 00:11:00;;;;;;;6.15;3.58;;;;;;;2.11;78.25;101686.73;1772393;75;21547;-46
2021/03/02 00:13:30;;;;;;;7.03;3.60;;;;;;;2.06;77.83;101671.61;1756477;80;21472;-47
2021/03/02 00:16:03;;;;;;;7.87;3.70;;;;;;;1.96;77.83;101676.20;1755275;80;21102;-46
2021/03/02 00:18:46;;;;;;;8.58;4.28;;;;;;;1.88;78.04;101669.00;1783622;76;21190;-46
2021/03/02 00:21:17;;;;;;;6.80;3.67;;;;;;;1.79;78.35;101668.80;1761789;76;21675;-46
2021/03/02 00:23:49;;;;;;;7.00;4.20;;;;;;;1.71;78.56;101664.21;1789015;78;21092;-46
2021/03/02 00:29:26;;;;;;;9.00;4.70;;;;;;;1.57;78.93;101658.88;1744804;80;21275;-46
2021/03/02 00:31:54;;;;;;;8.53;4.22;;;;;;;1.55;79.28;101661.97;1767412;77;21393;-46
2021/03/02 00:34:32;;;;;;;9.18;4.28;;;;;;;1.58;79.42;101655.83;1797708;76;21520;31
2021/03/02 00:37:00;;;;;;;6.50;3.33;;;;;;;1.62;79.54;101644.39;1736270;77;21156;-47
2021/03/02 00:39:28;;;;;;;5.58;3.30;;;;;;;1.68;79.49;101640.33;1715329;81;21137;-47
2021/03/02 00:42:00;;;;;;;7.70;3.85;;;;;;;1.73;79.39;101633.70;1747283;76;21268;31
2021/03/02 00:47:27;;;;;;;7.90;3.95;;;;;;;1.75;79.15;101621.01;1724385;81;21598;-46
2021/03/02 00:50:00;;;;;;;7.95;4.37;;;;;;;1.74;79.00;101615.38;1780843;76;20959;-47
2021/03/02 00:52:28;;;;;;;9.18;4.55;;;;;;;1.72;78.96;101615.02;1799003;77;20962;-47
2021/03/02 00:54:56;;;;;;;9.28;3.87;;;;;;;1.69;78.87;101604.66;1805796;76;21118;-46
2021/03/02 00:57:26;;;;;;;8.98;4.30;;;;;;;1.64;78.91;101600.00;1777465;77;21440;-46
2021/03/02 00:59:57;;;;;;;8.73;4.37;;;;;;;1.58;78.96;101609.70;1794020;78;21112;-47
2021/03/02 01:02:26;;;;;;;8.08;3.98;;;;;;;1.51;79.14;101606.83;1793575;77;21461;-46
2021/03/02 01:04:55;;;;;;;8.20;4.20;;;;;;;1.44;79.42;101605.26;1757708;79;21100;-47
2021/03/02 01:07:31;;;;;;;7.83;4.25;;;;;;;1.42;79.63;101609.66;1797245;77;21249;31
2021/03/02 01:13:01;;;;;;;8.80;3.90;;;;;;;1.41;79.83;101581.85;1707287;83;28093;-47
2021/03/02 01:15:32;;;;;;;7.90;3.95;;;;;;;1.47;79.97;101568.66;1776857;77;21536;-46
2021/03/02 01:18:05;;;;;;;6.30;3.67;;;;;;;1.53;80.03;101561.97;1815861;77;21133;31
2021/03/02 01:26:31;;;;;;;6.10;3.53;;;;;;;1.56;79.52;101531.89;1741424;81;21120;-46
2021/03/02 01:28:59;;;;;;;8.03;4.05;;;;;;;1.56;79.52;101531.89;1783062;77;21782;-46
2021/03/02 01:31:28;;;;;;;6.25;3.67;;;;;;;1.59;79.73;101533.11;1829323;78;21091;-46
2021/03/02 01:33:57;;;;;;;6.60;3.50;;;;;;;1.61;79.79;101533.05;1817559;78;21107;-46
2021/03/02 01:36:25;;;;;;;9.13;4.20;;;;;;;1.57;79.68;101524.93;1798137;77;21682;-46
2021/03/02 01:38:53;;;;;;;7.35;4.03;;;;;;;1.51;79.86;101520.70;1818171;76;21008;-46
2021/03/02 01:47:34;;;;;;;8.63;4.23;;;;;;;1.33;80.29;101512.92;1795077;77;21110;-47
2021/03/02 01:53:18;;;;;;;7.90;4.15;;;;;;;1.25;80.81;101510.95;1798803;76;21247;-45
2021/03/02 01:55:46;;;;;;;7.25;3.98;;;;;;;1.24;80.99;101512.68;1815382;78;21564;-47
2021/03/02 01:58:14;;;;;;;6.20;3.72;;;;;;;1.27;81.00;101510.46;1810153;76;21491;-46
2021/03/02 02:04:21;;;;;;;8.65;3.67;;;;;;;1.33;81.00;101496.80;1798231;77;21002;-46
2021/03/02 02:06:57;;;;;;;7.10;4.28;;;;;;;1.37;80.88;101501.52;1821504;78;21117;-46
2021/03/02 02:09:39;;;;;;;9.90;5.15;;;;;;;1.39;80.77;101497.54;1821685;78;21137;-46
2021/03/02 02:12:42;;;;;;;10.15;4.35;;;;;;;1.38;80.71;101488.88;1821479;78;21120;-47
2021/03/02 02:15:11;;;;;;;10.13;4.75;;;;;;;1.38;80.68;101486.70;1802208;76;21280;-46
2021/03/02 02:20:46;;;;;;;8.95;4.60;;;;;;;1.33;80.66;101497.27;1771126;78;21940;-46
2021/03/02 02:26:54;;;;;;;11.03;4.95;;;;;;;1.23;80.92;101482.28;1799294;78;21545;-46
2021/03/02 02:29:28;;;;;;;;;;;;;;;1.18;81.14;101475.89;1801873;79;21122;-47
2021/03/02 02:31:58;;;;;;;9.75;4.90;;;;;;;1.17;81.18;101473.30;1797758;78;21199;-47
2021/03/02 02:34:37;;;;;;;11.05;5.45;;;;;;;1.13;81.39;101463.84;1768214;77;21153;31
2021/03/02 02:37:06;;;;;;;9.95;5.10;;;;;;;1.12;81.50;101467.34;1772872;77;21635;-47
2021/03/02 02:42:57;;;;;;;9.60;5.40;;;;;;;1.13;81.54;101461.23;1767371;79;21173;-46
2021/03/02 02:45:25;;;;;;;12.43;5.50;;;;;;;1.15;81.47;101449.89;1746162;80;21905;-46
2021/03/02 02:48:08;;;;;;;10.35;5.30;;;;;;;1.17;81.44;101448.52;1745352;78;21347;31
2021/03/02 02:50:37;;;;;;;9.33;5.20;;;;;;;1.16;81.43;101458.12;1659398;83;21153;-47
2021/03/02 03:08:35;;;;;;;10.45;6.50;;;;;;;1.11;82.00;101446.95;1691976;82;21134;-47
2021/03/02 03:11:04;;;;;;;11.33;6.45;;;;;;;1.13;82.25;101456.89;1672995;83;21109;-46
2021/03/02 03:13:39;;;;;;;11.68;6.42;;;;;;;1.16;82.20;101465.07;1699689;81;21615;-46
2021/03/02 03:16:08;;;;;;;13.72;6.42;;;;;;;1.17;82.28;101455.05;1688743;82;21141;-47
2021/03/02 03:24:43;;;;;;;8.83;6.25;;;;;;;1.23;82.14;101443.16;1704700;79;21143;-46
2021/03/02 03:27:11;;;;;;;10.15;6.47;;;;;;;1.25;82.21;101453.09;1720453;81;21433;-46
2021/03/02 03:29:38;;;;;;;11.28;6.20;;;;;;;1.27;82.09;101455.22;1670957;81;21651;-45
2021/03/02 03:35:11;;;;;;;9.35;5.87;;;;;;;1.29;81.97;101458.64;1796754;77;21129;-46
2021/03/02 03:37:39;;;;;;;11.55;5.60;;;;;;;1.32;81.84;101453.34;1799983;77;21114;-47
2021/03/02 03:40:10;;;;;;;13.75;5.78;;;;;;;1.30;81.79;101457.75;1758755;81;22020;-46
2021/03/02 03:42:39;;;;;;;10.40;5.62;;;;;;;1.28;81.79;101450.41;1783844;77;21378;-47
2021/03/02 03:45:10;;;;;;;9.18;5.28;;;;;;;1.27;81.82;101453.08;1837408;77;21343;-47
2021/03/02 03:53:42;;;;;;;13.28;6.65;;;;;;;1.22;81.98;101449.73;1749700;80;21150;-47
2021/03/02 03:59:27;;;;;;;10.40;5.80;;;;;;;1.23;82.19;101443.16;1796824;76;21624;-46
2021/03/02 04:01:55;;;;;;;9.78;6.53;;;;;;;1.28;82.09;101443.05;1816192;77;21467;-47
2021/03/02 04:04:24;;;;;;;10.70;5.80;;;;;;;1.31;82.02;101439.89;1791045;76;21133;-46
2021/03/02 04:10:12;;;;;;;10.28;6.05;;;;;;;1.32;81.78;101432.48;1791251;75;21142;-47
2021/03/02 04:12:45;;;;;;;8.45;5.78;;;;;;;1.31;81.80;101419.03;1744276;79;21437;-48
2021/03/02 04:15:16;;;;;;;11.12;5.75;;;;;;;1.33;81.82;101423.75;1695297;81;21596;-48
2021/03/02 04:32:39;;;;;;;9.13;5.58;;;;;;;1.18;82.04;101414.59;1650862;84;21174;-46
2021/03/02 04:35:09;;;;;;;9.53;5.87;;;;;;;1.15;82.17;101409.89;1687569;82;21209;-46
2021/03/02 04:38:09;;;;;;;10.28;5.35;;;;;;;1.16;82.28;101410.30;1746485;79;21599;-47
2021/03/02 04:40:52;;;;;;;10.93;5.42;;;;;;;1.21;82.55;101404.98;1795830;76;21098;-46
2021/03/02 04:43:20;;;;;;;10.40;5.53;;;;;;;1.29;82.43;101413.45;1770050;80;21118;-47
2021/03/02 04:49:06;;;;;;;12.35;6.40;;;;;;;1.30;82.13;101406.04;1719966;79;21157;-47
2021/03/02 04:51:34;;;;;;;10.65;6.20;;;;;;;1.32;82.09;101401.64;1715469;80;21174;-47
2021/03/02 04:54:13;;;;;;;11.85;6.15;;;;;;;1.34;82.16;101398.55;1759323;76;21233;31
2021/03/02 04:56:43;;;;;;;12.20;6.62;;;;;;;1.36;82.01;101397.18;1774470;79;21129;-47
2021/03/02 04:59:11;;;;;;;10.05;5.42;;;;;;;1.37;81.98;101393.67;1775712;79;21582;-47
2021/03/02 05:02:14;;;;;;;11.60;6.55;;;;;;;1.36;81.92;101390.22;1796899;76;21557;-47
2021/03/02 05:04:44;;;;;;;11.55;6.65;;;;;;;1.31;81.74;101394.71;1786447;77;21487;-47
2021/03/02 05:07:13;;;;;;;11.38;6.65;;;;;;;1.27;81.82;101383.48;1768620;77;21002;-47
2021/03/02 05:09:41;;;;;;;12.07;6.83;;;;;;;1.25;82.08;101388.36;1806308;76;21034;-46
2021/03/02 05:12:17;;;;;;;13.50;7.45;;;;;;;1.26;82.18;101394.81;1807600;76;21264;31
2021/03/02 05:20:44;;;;;;;12.82;6.55;;;;;;;1.24;82.35;101403.13;1786964;76;21576;-51
2021/03/02 05:35:42;;;;;;;14.90;8.15;;;;;;;1.41;82.06;101397.91;1719496;81;21563;-46
2021/03/02 05:41:52;;;;;;;10.38;6.75;;;;;;;1.49;81.97;101392.50;1724186;78;21181;31
2021/03/02 05:44:20;;;;;;;13.93;7.37;;;;;;;1.52;81.96;101384.12;1705962;83;21030;-47
2021/03/02 05:46:47;;;;;;;16.42;8.45;;;;;;;1.49;81.66;101388.12;1756368;81;21043;-46
2021/03/02 05:49:16;;;;;;;14.35;8.20;;;;;;;1.45;81.81;101382.58;1756430;81;21038;-47
2021/03/02 05:51:44;;;;;;;15.80;8.78;;;;;;;1.44;81.76;101385.66;1735671;82;21039;-46
2021/03/02 05:54:17;;;;;;;14.85;9.33;;;;;;;1.43;81.91;101385.25;1724840;83;21014;-47
2021/03/02 05:56:47;;;;;;;14.15;8.60;;;;;;;1.44;82.02;101386.08;1735611;82;21622;-47
2021/03/02 05:59:17;;;;;;;17.20;9.53;;;;;;;1.43;82.09;101377.42;1735553;82;21031;-46
2021/03/02 06:01:44;;;;;;;15.53;8.18;;;;;;;1.43;81.98;101382.64;1755983;81;21461;-46
2021/03/02 06:04:19;;;;;;;14.60;8.60;;;;;;;1.43;82.05;101376.55;1735630;82;21147;-46
2021/03/02 06:06:47;;;;;;;;;;;;;;;1.44;82.14;101373.91;1759414;81;21141;-47
2021/03/02 06:09:14;;;;;;;14.98;8.40;;;;;;;1.42;81.99;101372.23;1724666;83;20624;-47
2021/03/02 06:11:44;;;;;;;16.32;9.98;;;;;;;1.37;82.21;101365.84;1756200;81;21058;-47
2021/03/02 06:14:24;;;;;;;21.82;10.23;;;;;;;1.36;82.40;101375.00;1724729;83;21488;-47
2021/03/02 06:16:55;;;;;;;15.88;9.18;;;;;;;1.36;82.42;101377.61;1756568;81;21434;-46
2021/03/02 06:19:46;;;;;;;15.32;9.13;;;;;;;1.40;82.52;101374.02;1735619;82;21932;-47
2021/03/02 06:22:33;;;;;;;14.63;8.83;;;;;;;1.40;82.48;101376.63;1756794;81;21176;-47
2021/03/02 06:25:06;;;;;;;17.32;9.33;;;;;;;1.41;82.45;101381.83;1735641;82;21003;-47
2021/03/02 06:27:33;;;;;;;17.45;10.32;;;;;;;1.41;82.54;101382.25;1756681;81;21431;-47
2021/03/02 06:30:14;;;;;;;22.73;10.85;;;;;;;1.41;82.61;101378.34;1724679;83;21185;-47
2021/03/02 06:32:45;;;;;;;16.27;9.65;;;;;;;1.44;82.63;101377.83;1756488;81;21110;-47
2021/03/02 06:35:38;;;;;;;21.48;10.60;;;;;;;1.50;82.52;101372.03;1724813;83;21279;-47
2021/03/02 06:38:06;;;;;;;17.42;9.93;;;;;;;1.53;82.43;101374.55;1756203;81;21148;-46
2021/03/02 06:40:48;;;;;;;18.20;11.25;;;;;;;1.56;82.41;101374.00;1735635;82;21134;-47
2021/03/02 06:43:36;;;;;;;19.15;10.28;;;;;;;1.56;82.21;101376.61;1723180;82;21741;-46
2021/03/02 06:46:07;;;;;;;20.70;11.85;;;;;;;1.55;82.23;101383.19;1756808;81;21139;-47
2021/03/02 06:48:52;;;;;;;20.08;10.35;;;;;;;1.56;82.27;101382.30;1756517;81;21214;-47
2021/03/02 06:51:28;;;;;;;20.75;10.63;;;;;;;1.59;82.21;101380.44;1704014;84;21466;-46
2021/03/02 06:54:15;;;;;;;20.12;10.93;;;;;;;1.61;82.08;101383.86;1754932;81;21874;-47
2021/03/02 06:56:43;;;;;;;21.82;12.43;;;;;;;1.61;82.20;101373.85;1703842;84;21055;-48
2021/03/02 06:59:19;;;;;;;18.07;10.70;;;;;;;1.59;82.02;101371.77;1755835;81;21964;-48
2021/03/02 07:01:51;;;;;;;18.77;10.23;;;;;;;1.59;82.11;101380.44;1703970;84;21862;-46
2021/03/02 07:04:20;;;;;;;23.77;12.30;;;;;;;1.58;82.07;101376.12;1755967;81;21143;-47
2021/03/02 07:06:54;;;;;;;23.05;12.65;;;;;;;1.58;82.18;101373.50;1704017;84;21154;-47
2021/03/02 07:09:21;;;;;;;24.12;12.85;;;;;;;1.60;82.23;101371.70;1755859;81;21415;-47
2021/03/02 07:11:49;;;;;;;22.80;11.63;;;;;;;1.62;82.33;101365.13;1703941;84;21171;-47
2021/03/02 07:14:17;;;;;;;25.68;12.82;;;;;;;1.66;82.23;101364.61;1755866;81;21357;-46
2021/03/02 07:16:46;;;;;;;21.65;11.85;;;;;;;1.70;82.24;101361.84;1703914;84;21477;-48
2021/03/02 19:33:10;;;;;;;24.92;12.60;;;;;;;2.36;75.85;101183.04;1741866;77;21356;-49
2021/03/02 19:35:40;;;;;;;22.37;11.25;;;;;;;2.37;75.92;101191.28;1749279;78;21169;-48
2021/03/02 19:38:08;;;;;;;22.58;10.75;;;;;;;2.37;75.97;101188.67;1755218;80;21217;-49
2021/03/02 19:40:37;;;;;;;24.85;10.70;;;;;;;2.40;76.10;101192.48;1697746;82;21215;-48
2021/03/02 19:43:05;;;;;;;19.67;9.68;;;;;;;2.42;76.09;101202.42;1758339;80;21227;-47
2021/03/02 19:45:33;;;;;;;26.27;10.90;;;;;;;2.44;76.08;101199.78;1759002;80;21111;-48
2021/03/02 19:48:01;;;;;;;24.00;11.40;;;;;;;2.44;76.01;101211.53;1758797;80;21155;-49
2021/03/02 19:50:31;;;;;;;21.50;9.60;;;;;;;2.45;76.02;101209.32;1717548;82;21616;-48
2021/03/02 19:52:58;;;;;;;19.48;9.85;;;;;;;2.46;76.09;101216.26;1760989;80;21125;-48
2021/03/02 19:55:27;;;;;;;26.80;11.95;;;;;;;2.46;76.12;101217.09;1721185;82;21475;-49
2021/03/02 19:57:54;;;;;;;17.07;8.88;;;;;;;2.49;76.06;101219.59;1723781;81;21154;-48
2021/03/02 20:00:23;;;;;;;22.87;10.85;;;;;;;2.50;75.99;101216.08;1756445;80;22146;-49
2021/03/02 20:02:53;;;;;;;21.17;10.60;;;;;;;2.50;75.99;101229.62;1716326;81;21161;-49
2021/03/02 20:05:23;;;;;;;20.70;10.70;;;;;;;2.49;75.93;101222.69;1758429;80;21609;-49
2021/03/02 20:07:52;;;;;;;20.20;10.30;;;;;;;2.47;75.95;101231.03;1757582;80;21138;-48
2021/03/02 20:10:19;;;;;;;19.92;9.15;;;;;;;2.45;76.04;101232.84;1754410;80;21128;-48
2021/03/02 20:13:00;;;;;;;23.32;11.57;;;;;;;2.45;76.12;101223.23;1851116;75;22456;-49
2021/03/02 20:15:30;;;;;;;24.23;11.10;;;;;;;2.39;76.21;101226.05;1790909;75;28853;-48
2021/03/02 20:17:59;;;;;;;21.25;10.05;;;;;;;2.38;76.36;101235.27;1776324;79;22005;-48
2021/03/02 20:20:27;;;;;;;21.82;10.53;;;;;;;2.35;76.51;101229.23;1776563;79;20982;-49
2021/03/02 20:22:55;;;;;;;20.97;10.85;;;;;;;2.36;76.62;101237.47;1773946;79;21493;-49
2021/03/02 20:25:23;;;;;;;24.55;10.32;;;;;;;2.38;76.75;101232.18;1773749;79;21405;-49
2021/03/02 20:27:52;;;;;;;18.67;9.93;;;;;;;2.41;76.85;101238.61;1777465;79;20963;-48
2021/03/02 20:30:24;;;;;;;19.82;9.68;;;;;;;2.43;76.90;101236.80;1776738;79;21626;-49
2021/03/02 20:32:52;;;;;;;23.87;9.35;;;;;;;2.46;76.85;101241.92;1775316;80;21496;-48
2021/03/02 20:35:20;;;;;;;18.30;9.35;;;;;;;2.48;76.84;101231.43;1773879;80;21067;-49
2021/03/02 20:37:48;;;;;;;19.30;9.48;;;;;;;2.49;76.76;101233.98;1778835;80;21105;-48
2021/03/02 20:40:17;;;;;;;20.27;9.05;;;;;;;2.50;76.82;101233.06;1767313;80;21078;-48
2021/03/02 20:42:45;;;;;;;16.97;8.15;;;;;;;2.53;76.81;101239.97;1769629;80;21576;-48
2021/03/02 20:45:14;;;;;;;20.25;9.13;;;;;;;2.56;76.79;101235.94;1778554;80;21129;-49
2021/03/02 20:47:43;;;;;;;18.60;9.03;;;;;;;2.60;76.75;101244.52;1774696;80;21565;-48
2021/03/02 20:50:12;;;;;;;18.32;8.63;;;;;;;2.61;76.69;101245.78;1766939;80;21558;-48
2021/03/02 20:52:40;;;;;;;18.20;8.58;;;;;;;2.63;76.58;101240.05;1765104;79;21077;-48
2021/03/02 20:55:10;;;;;;;18.30;9.93;;;;;;;2.62;76.61;101243.56;1729434;80;21524;-48
2021/03/02 20:57:39;;;;;;;16.70;8.83;;;;;;;2.63;76.58;101241.80;1717155;82;21544;-48
2021/03/02 21:00:08;;;;;;;15.45;7.58;;;;;;;2.66;76.57;101237.77;1722967;81;21559;-49
2021/03/02 21:02:36;;;;;;;17.20;8.43;;;;;;;2.66;76.59;101248.22;1716554;82;21125;-49
2021/03/02 21:05:05;;;;;;;17.07;8.15;;;;;;;2.65;76.59;101245.20;1715528;82;21146;-47
2021/03/02 21:07:36;;;;;;;15.50;8.18;;;;;;;2.64;76.56;101248.28;1715691;82;21652;-48
2021/03/02 21:10:06;;;;;;;14.87;7.83;;;;;;;2.64;76.57;101257.88;1716430;81;21184;-49
2021/03/02 21:12:36;;;;;;;18.25;8.60;;;;;;;2.62;76.56;101264.92;1718190;82;21470;-48
2021/03/02 21:15:05;;;;;;;13.95;7.45;;;;;;;2.60;76.64;101267.59;1708886;82;21542;-49
2021/03/02 21:17:33;;;;;;;17.15;7.53;;;;;;;2.61;76.65;101260.16;1714180;82;21636;-48
2021/03/02 21:20:04;;;;;;;14.47;7.72;;;;;;;2.60;76.65;101260.20;1713199;82;24437;-49
2021/03/02 21:22:37;;;;;;;14.25;7.28;;;;;;;2.59;76.72;101262.41;1720668;80;21583;-48
2021/03/02 21:25:11;;;;;;;16.23;8.68;;;;;;;2.58;76.76;101261.57;1707520;81;21029;-49
2021/03/02 21:27:42;;;;;;;12.40;6.60;;;;;;;2.56;76.78;101256.85;1722351;80;21224;-48
2021/03/02 21:30:15;;;;;;;17.60;7.62;;;;;;;2.57;76.80;101261.61;1702945;80;21576;-48
2021/03/02 21:32:45;;;;;;;18.12;7.85;;;;;;;2.56;76.79;101263.82;1725209;80;21189;-48
2021/03/02 21:35:13;;;;;;;11.22;6.75;;;;;;;2.55;76.84;101262.98;1723242;80;21542;-49
2021/03/02 21:37:43;;;;;;;14.13;6.53;;;;;;;2.52;76.88;101263.09;1719589;80;21503;-49
2021/03/02 21:40:12;;;;;;;12.35;6.12;;;;;;;2.50;76.92;101260.98;1717141;80;21122;-49
2021/03/02 21:42:40;;;;;;;15.35;6.92;;;;;;;2.48;76.92;101266.24;1721758;80;21115;-49
2021/03/02 21:45:10;;;;;;;12.30;6.35;;;;;;;2.45;76.98;101266.34;1728019;80;22339;-49
2021/03/02 21:47:38;;;;;;;12.73;6.30;;;;;;;2.44;77.03;101269.03;1725496;80;21166;-48
2021/03/02 21:50:11;;;;;;;14.40;6.62;;;;;;;2.43;77.12;101274.69;1684229;82;21133;-49
2021/03/02 21:52:38;;;;;;;14.45;6.95;;;;;;;2.40;77.18;101269.56;1678369;82;21161;-47
2021/03/02 21:55:10;;;;;;;12.93;6.53;;;;;;;2.38;77.25;101273.98;1697518;82;21143;-47
2021/03/02 21:57:38;;;;;;;14.43;7.08;;;;;;;2.36;77.24;101279.28;1685354;82;21552;-48
2021/03/02 22:00:07;;;;;;;13.62;6.85;;;;;;;2.32;77.35;101278.98;1678133;82;21717;-48
2021/03/02 22:02:34;;;;;;;12.63;6.40;;;;;;;2.29;77.42;101266.45;1686491;82;21528;-48
2021/03/02 22:05:04;;;;;;;12.33;6.17;;;;;;;2.28;77.51;101273.89;1726185;80;20972;-48
2021/03/02 22:07:32;;;;;;;14.60;6.80;;;;;;;2.26;77.65;101269.17;1727177;80;21107;-48
2021/03/02 22:10:02;;;;;;;11.95;6.62;;;;;;;2.25;77.69;101272.69;1721510;80;21995;-48
2021/03/02 22:12:30;;;;;;;14.98;6.72;;;;;;;2.24;77.71;101274.90;1729323;80;21008;-48
2021/03/02 22:14:58;;;;;;;11.05;6.22;;;;;;;2.20;77.70;101272.39;1739152;80;21610;-48
2021/03/02 22:17:25;;;;;;;10.05;6.10;;;;;;;2.18;77.69;101272.89;1726533;80;21107;-48
2021/03/02 22:19:53;;;;;;;12.35;5.80;;;;;;;2.17;77.80;101271.64;1727918;80;21580;-48
2021/03/02 22:22:25;;;;;;;13.83;6.58;;;;;;;2.14;77.93;101277.81;1726700;80;21467;-48
2021/03/02 22:24:54;;;;;;;12.30;6.12;;;;;;;2.13;77.98;101282.63;1720350;80;21594;-49
2021/03/02 22:27:22;;;;;;;15.53;6.72;;;;;;;2.12;78.03;101278.78;1721189;80;21139;-48
2021/03/02 22:29:50;;;;;;;14.07;6.47;;;;;;;2.12;78.05;101283.53;1723482;80;20979;-48
2021/03/02 22:32:18;;;;;;;17.30;7.17;;;;;;;2.11;78.12;101290.13;1725015;80;21095;-48
2021/03/02 22:34:46;;;;;;;13.45;6.55;;;;;;;2.10;78.07;101290.59;1686288;83;21573;-49
2021/03/02 22:37:14;;;;;;;12.65;5.60;;;;;;;2.08;78.05;101285.88;1727521;80;21605;-48
2021/03/02 22:39:41;;;;;;;12.28;6.12;;;;;;;2.07;78.11;101288.08;1730729;80;21016;-48
2021/03/02 22:42:09;;;;;;;13.83;6.80;;;;;;;2.08;78.12;101292.41;1724927;80;21515;-48
2021/03/02 22:44:37;;;;;;;13.13;6.25;;;;;;;2.09;78.29;101299.77;1730429;80;21126;-47
2021/03/02 22:47:05;;;;;;;12.88;6.37;;;;;;;2.08;78.32;101296.76;1731988;80;21509;-48
2021/03/02 22:49:32;;;;;;;10.53;5.55;;;;;;;2.08;78.33;101297.63;1723944;79;21398;-47
2021/03/02 22:52:01;;;;;;;14.30;5.80;;;;;;;2.06;78.33;101292.91;1719421;80;21122;-47
2021/03/02 22:54:29;;;;;;;12.07;6.35;;;;;;;2.05;78.36;101300.33;1718607;80;21120;-49
2021/03/02 22:56:58;;;;;;;12.58;6.08;;;;;;;2.05;78.38;101301.64;1718845;80;20993;-48
2021/03/02 22:59:27;;;;;;;12.65;6.00;;;;;;;2.05;78.42;101301.64;1718828;80;21199;-48
2021/03/02 23:01:57;;;;;;;17.52;6.70;;;;;;;2.03;78.40;101302.98;1722974;80;21175;-48
2021/03/02 23:04:27;;;;;;;12.05;5.70;;;;;;;2.00;78.52;101304.84;1721098;80;21374;-48
2021/03/02 23:06:55;;;;;;;12.63;5.80;;;;;;;1.96;78.73;101306.69;1718968;80;21114;-49
2021/03/02 23:09:24;;;;;;;15.15;6.20;;;;;;;1.95;78.83;101303.67;1719015;80;21143;-48
2021/03/02 23:11:51;;;;;;;11.90;5.08;;;;;;;1.95;78.86;101307.59;1726877;80;21569;-48
2021/03/02 23:14:19;;;;;;;11.43;5.85;;;;;;;1.95;78.89;101308.89;1727639;80;21020;-48
2021/03/02 23:16:47;;;;;;;13.72;5.40;;;;;;;1.95;78.94;101310.66;1722577;80;21594;-48
2021/03/02 23:19:15;;;;;;;12.60;6.08;;;;;;;1.94;78.88;101307.66;1726244;80;21119;-48
2021/03/02 23:21:44;;;;;;;13.08;6.15;;;;;;;1.93;78.92;101313.77;1721868;80;21015;-49
2021/03/02 23:24:13;;;;;;;10.93;6.00;;;;;;;1.90;78.86;101310.36;1734095;80;21966;-49
2021/03/02 23:26:41;;;;;;;12.28;5.30;;;;;;;1.90;78.87;101312.97;1725842;80;21023;-48
2021/03/02 23:29:10;;;;;;;11.48;5.60;;;;;;;1.90;78.93;101314.27;1721584;80;21384;-48
2021/03/02 23:31:38;;;;;;;9.05;4.78;;;;;;;1.90;79.13;101311.66;1721403;80;21122;-48
2021/03/02 23:34:06;;;;;;;11.85;5.70;;;;;;;1.89;79.08;101319.09;1721500;80;20980;-48
2021/03/02 23:36:34;;;;;;;11.48;5.47;;;;;;;1.89;79.10;101326.92;1689616;83;21421;-48
2021/03/02 23:39:02;;;;;;;11.63;6.08;;;;;;;1.89;79.11;101328.23;1668975;83;21033;-47
2021/03/02 23:41:30;;;;;;;9.48;4.97;;;;;;;1.88;79.09;101321.30;1668764;83;21143;-48
2021/03/02 23:43:58;;;;;;;12.85;5.95;;;;;;;1.89;79.15;101320.39;1671769;83;21143;-48
2021/03/02 23:46:26;;;;;;;13.80;6.33;;;;;;;1.88;79.23;101323.04;1669034;83;21163;-48
2021/03/02 23:48:55;;;;;;;11.28;6.05;;;;;;;1.87;79.20;101332.64;1669014;83;21558;-48
2021/03/02 23:51:22;;;;;;;9.90;5.80;;;;;;;1.84;79.13;101323.59;1668725;83;21100;-48
2021/03/02 23:53:50;;;;;;;11.48;5.80;;;;;;;1.81;79.18;101323.69;1668876;83;21162;-48
2021/03/02 23:56:18;;;;;;;12.95;5.95;;;;;;;1.80;79.26;101328.50;1668836;83;21388;-48
2021/03/02 23:58:45;;;;;;;12.50;5.72;;;;;;;1.78;79.27;101319.87;1668906;83;21156;-48
